Time;durP1;ratioP1;P1;durP2;ratioP2;P2;SDS_P1;SDS_P2;PMS_P1;PMS_P2;Temp;Humidity;BMP_temperature;BMP_pressure;BME280_temperature;BME280_humidity;BME280_pressure;Samples;Min_cycle;Max_cycle;Signal;HPM_P1;HPM_P2
2023/01/09 00:01:21;;;;;;;23.40;12.60;;;4.20;99.90;;;;;;5064621;28;20033;-80
2023/01/09 00:03:47;;;;;;;25.95;13.80;;;4.20;99.90;;;;;;5069699;28;20233;-80
2023/01/09 00:06:13;;;;;;;23.33;13.50;;;4.20;99.90;;;;;;5054143;28;20029;-80
2023/01/09 00:08:39;;;;;;;22.88;12.00;;;4.10;99.90;;;;;;5071560;28;20017;-80
2023/01/09 00:11:06;;;;;;;23.05;12.35;;;4.10;99.90;;;;;;5036015;28;20408;-80
2023/01/09 00:13:32;;;;;;;24.77;12.63;;;4.10;99.90;;;;;;5052145;28;20080;-79
2023/01/09 00:15:58;;;;;;;25.42;13.35;;;4.10;99.90;;;;;;5070874;28;20036;-80
2023/01/09 00:18:25;;;;;;;24.73;13.55;;;4.10;99.90;;;;;;5039466;28;20098;-79
2023/01/09 00:20:50;;;;;;;23.02;12.52;;;4.10;99.90;;;;;;5050337;28;20044;-79
2023/01/09 00:23:16;;;;;;;21.92;12.82;;;4.10;99.90;;;;;;5071555;28;20028;-79
2023/01/09 00:25:42;;;;;;;23.73;13.27;;;4.10;99.90;;;;;;5055616;28;20100;-80
2023/01/09 00:28:08;;;;;;;26.17;13.27;;;4.10;99.90;;;;;;5073321;28;20052;-80
2023/01/09 00:30:35;;;;;;;24.42;13.15;;;4.10;99.90;;;;;;5062740;28;20120;-80
2023/01/09 00:33:01;;;;;;;26.13;13.60;;;4.10;99.90;;;;;;5068227;28;20060;-80
2023/01/09 00:35:27;;;;;;;24.60;13.40;;;4.10;99.90;;;;;;5036378;28;20045;-80
2023/01/09 00:37:54;;;;;;;23.85;13.00;;;4.10;99.90;;;;;;5073126;28;20525;-80
2023/01/09 00:40:20;;;;;;;22.90;12.82;;;4.10;99.90;;;;;;5056196;28;20040;-80
2023/01/09 00:42:51;;;;;;;22.73;12.60;;;4.10;99.90;;;;;;5069058;28;20034;-79
2023/01/09 00:45:27;;;;;;;23.00;12.80;;;4.10;99.90;;;;;;5054103;28;20127;-78
2023/01/09 00:48:00;;;;;;;25.23;13.38;;;4.10;99.90;;;;;;5040183;28;20087;-79
2023/01/09 00:50:30;;;;;;;24.58;13.07;;;4.10;99.90;;;;;;5072789;28;20028;-79
2023/01/09 00:53:01;;;;;;;24.48;12.95;;;4.10;99.90;;;;;;5059590;28;20032;-79
2023/01/09 00:55:27;;;;;;;21.55;11.75;;;4.20;99.90;;;;;;5070398;28;20123;-80
2023/01/09 00:57:54;;;;;;;24.08;12.75;;;4.20;99.90;;;;;;5056069;28;20115;-79
2023/01/09 01:00:20;;;;;;;22.05;11.32;;;4.20;99.90;;;;;;5071575;28;20040;-80
2023/01/09 01:02:46;;;;;;;22.35;12.13;;;4.30;99.90;;;;;;5066435;28;20319;-80
2023/01/09 01:07:56;;;;;;;23.40;12.48;;;4.30;99.90;;;;;;5056020;28;20036;-79
2023/01/09 01:10:24;;;;;;;23.63;12.75;;;4.30;99.90;;;;;;5072570;28;20032;-79
2023/01/09 01:12:52;;;;;;;23.48;12.13;;;4.30;99.90;;;;;;5069500;28;20032;-78
2023/01/09 01:15:19;;;;;;;24.67;11.75;;;4.30;99.90;;;;;;5050747;28;20029;-79
2023/01/09 01:17:45;;;;;;;25.55;11.93;;;4.30;99.90;;;;;;5060961;28;20058;-79
2023/01/09 01:20:14;;;;;;;24.90;12.43;;;4.30;99.90;;;;;;5061028;28;20032;-79
2023/01/09 01:22:43;;;;;;;21.98;12.00;;;4.30;99.90;;;;;;5067625;28;20060;-76
2023/01/09 01:25:10;;;;;;;20.75;11.35;;;4.30;99.90;;;;;;5045291;28;20025;-78
2023/01/09 01:27:36;;;;;;;21.23;11.43;;;4.30;99.90;;;;;;5071654;28;20041;-79
2023/01/09 01:30:02;;;;;;;21.48;11.30;;;4.30;99.90;;;;;;5050853;28;20036;-79
2023/01/09 01:32:28;;;;;;;21.85;11.27;;;4.30;99.90;;;;;;5064227;28;20037;-79
2023/01/09 01:34:55;;;;;;;20.98;10.85;;;4.30;99.90;;;;;;5065574;28;20036;-79
2023/01/09 01:37:21;;;;;;;21.35;11.82;;;4.40;99.90;;;;;;5048641;28;20043;-78
2023/01/09 01:39:47;;;;;;;22.75;11.85;;;4.40;99.90;;;;;;5053009;28;20032;-78
2023/01/09 01:42:13;;;;;;;20.35;11.18;;;4.40;99.90;;;;;;5066958;28;20032;-79
2023/01/09 01:44:58;;;;;;;18.05;10.38;;;4.40;99.90;;;;;;5032192;28;20020;-78
2023/01/09 01:47:37;;;;;;;20.27;11.50;;;4.30;99.90;;;;;;5069727;28;20044;-78
2023/01/09 01:50:10;;;;;;;21.15;10.68;;;4.30;99.90;;;;;;5070216;28;20119;-78
2023/01/09 01:52:37;;;;;;;18.77;10.57;;;4.30;99.90;;;;;;5044872;28;20102;-77
2023/01/09 01:55:07;;;;;;;19.67;10.35;;;4.30;99.90;;;;;;5050693;28;20116;-78
2023/01/09 01:57:34;;;;;;;20.92;11.30;;;4.30;99.90;;;;;;5068242;28;20063;-78
2023/01/09 02:00:02;;;;;;;17.90;10.52;;;4.30;99.90;;;;;;5049294;28;20036;-78
2023/01/09 02:02:31;;;;;;;22.40;12.07;;;4.30;99.90;;;;;;5045738;28;20598;-78
2023/01/09 02:04:59;;;;;;;18.23;10.80;;;4.30;99.90;;;;;;5048413;28;20064;-78
2023/01/09 02:07:25;;;;;;;20.27;10.55;;;4.30;99.90;;;;;;5067609;28;20481;-79
2023/01/09 02:09:52;;;;;;;19.85;11.45;;;4.20;99.90;;;;;;5069924;28;20036;-79
2023/01/09 02:12:24;;;;;;;18.48;10.95;;;4.20;99.90;;;;;;5052077;28;20451;-79
2023/01/09 02:14:57;;;;;;;22.33;11.35;;;4.20;99.90;;;;;;5053127;28;20608;-78
2023/01/09 02:17:53;;;;;;;18.77;10.65;;;4.20;99.90;;;;;;5051310;28;20590;-78
2023/01/09 02:20:46;;;;;;;20.33;11.10;;;4.20;99.90;;;;;;5068313;28;20031;-79
2023/01/09 02:23:38;;;;;;;18.13;10.07;;;4.20;99.90;;;;;;5065934;28;20036;-77
2023/01/09 02:26:22;;;;;;;19.85;10.10;;;4.20;99.90;;;;;;5069325;28;20032;-79
2023/01/09 02:28:56;;;;;;;18.10;9.40;;;4.20;99.90;;;;;;5071229;28;20025;-79
2023/01/09 02:31:47;;;;;;;20.50;10.75;;;4.20;99.90;;;;;;5050987;28;20044;-77
2023/01/09 02:34:37;;;;;;;19.08;10.75;;;4.20;99.90;;;;;;5067467;28;20409;-78
2023/01/09 02:37:16;;;;;;;20.33;10.68;;;4.30;99.90;;;;;;5030014;28;20048;-79
2023/01/09 02:40:09;;;;;;;18.88;10.43;;;4.30;99.90;;;;;;5052525;28;20055;-79
2023/01/09 02:42:37;;;;;;;17.63;9.63;;;4.20;99.90;;;;;;5065332;28;20024;-79
2023/01/09 02:45:03;;;;;;;19.25;10.50;;;4.20;99.90;;;;;;5040637;28;20051;-79
2023/01/09 02:47:29;;;;;;;19.27;10.23;;;4.20;99.90;;;;;;5069727;28;20033;-79
2023/01/09 02:50:01;;;;;;;18.90;8.95;;;4.20;99.90;;;;;;5054488;28;20031;-79
2023/01/09 02:52:36;;;;;;;17.98;9.70;;;4.20;99.90;;;;;;5020010;28;20047;-78
2023/01/09 02:55:14;;;;;;;;;;;4.30;99.90;;;;;;5069190;28;20024;-79
2023/01/09 02:58:05;;;;;;;17.23;9.85;;;4.30;99.90;;;;;;5047511;28;19912;-79
2023/01/09 03:00:34;;;;;;;16.73;8.93;;;4.30;99.90;;;;;;5070264;28;20024;-80
2023/01/09 03:03:22;;;;;;;17.63;9.63;;;4.40;99.90;;;;;;5047547;28;20032;-79
2023/01/09 03:05:55;;;;;;;17.75;9.18;;;4.40;99.90;;;;;;5069879;28;20036;-78
2023/01/09 03:08:27;;;;;;;19.05;9.38;;;4.40;99.90;;;;;;5051454;28;20037;-79
2023/01/09 03:11:03;;;;;;;17.42;9.80;;;4.40;99.90;;;;;;5067282;28;20040;-79
2023/01/09 03:13:34;;;;;;;17.27;8.95;;;4.40;99.90;;;;;;5051174;28;20033;-79
2023/01/09 03:16:05;;;;;;;15.35;9.07;;;4.40;99.90;;;;;;5061292;28;20530;-80
2023/01/09 03:18:33;;;;;;;18.55;8.45;;;4.40;99.90;;;;;;5071644;28;20057;-80
2023/01/09 03:20:59;;;;;;;18.63;10.10;;;4.40;99.90;;;;;;5054527;28;20021;-79
2023/01/09 03:23:26;;;;;;;16.77;9.88;;;4.40;99.90;;;;;;5073120;28;20064;-80
2023/01/09 03:25:52;;;;;;;16.55;9.73;;;4.40;99.90;;;;;;5073163;28;20071;-79
2023/01/09 03:28:27;;;;;;;21.90;10.85;;;4.40;99.90;;;;;;5056973;28;20044;-79
2023/01/09 03:30:54;;;;;;;15.75;9.40;;;4.30;99.90;;;;;;5072998;28;20085;-80
2023/01/09 03:33:19;;;;;;;22.33;11.07;;;4.30;99.90;;;;;;5054978;28;20128;-79
2023/01/09 03:35:45;;;;;;;19.38;10.32;;;4.30;99.90;;;;;;5074134;28;20020;-80
2023/01/09 03:38:12;;;;;;;20.92;10.95;;;4.30;99.90;;;;;;5071911;28;20485;-79
2023/01/09 03:40:37;;;;;;;20.48;10.85;;;4.30;99.90;;;;;;5057390;28;20021;-80
2023/01/09 03:43:04;;;;;;;17.45;10.27;;;4.20;99.90;;;;;;5073080;28;20033;-79
2023/01/09 03:45:30;;;;;;;16.67;10.05;;;4.20;99.90;;;;;;5071971;28;20028;-79
2023/01/09 03:47:57;;;;;;;15.63;8.95;;;4.20;99.90;;;;;;5073748;28;20039;-80
2023/01/09 03:50:23;;;;;;;17.52;10.43;;;4.20;99.90;;;;;;5074360;28;20409;-80
2023/01/09 03:52:48;;;;;;;17.85;9.63;;;4.20;99.90;;;;;;5073029;28;20024;-80
2023/01/09 03:55:14;;;;;;;17.92;9.23;;;4.20;99.90;;;;;;5056398;28;20033;-80
2023/01/09 03:57:40;;;;;;;17.63;9.30;;;4.20;99.90;;;;;;5058102;28;20029;-80
2023/01/09 04:00:07;;;;;;;15.07;8.60;;;4.10;99.90;;;;;;5076032;28;20079;-80
2023/01/09 04:02:38;;;;;;;16.25;9.48;;;4.20;99.90;;;;;;5073365;28;20630;-80
2023/01/09 04:05:04;;;;;;;13.35;8.60;;;4.10;99.90;;;;;;5074798;28;20028;-80
2023/01/09 04:07:30;;;;;;;16.00;9.65;;;4.10;99.90;;;;;;5051842;28;20041;-80
2023/01/09 04:09:56;;;;;;;18.60;10.10;;;4.10;99.90;;;;;;5040683;28;20178;-80
2023/01/09 04:12:21;;;;;;;16.50;8.98;;;4.30;99.90;;;;;;5073306;28;20521;-80
2023/01/09 04:14:47;;;;;;;16.00;9.45;;;4.30;99.90;;;;;;5056050;28;20029;-80
2023/01/09 04:17:15;;;;;;;16.48;9.27;;;4.30;99.90;;;;;;5075327;28;20078;-80
2023/01/09 04:19:41;;;;;;;17.92;10.13;;;4.40;99.90;;;;;;5049064;28;20102;-79
2023/01/09 04:22:07;;;;;;;19.42;10.13;;;4.40;99.90;;;;;;5070105;28;20032;-78
2023/01/09 04:24:33;;;;;;;18.63;10.13;;;4.40;99.90;;;;;;5056809;28;20033;-80
2023/01/09 04:26:59;;;;;;;20.40;10.23;;;4.40;99.90;;;;;;5075387;28;20421;-79
2023/01/09 04:29:25;;;;;;;17.27;9.60;;;4.40;99.90;;;;;;5075838;28;20028;-78
2023/01/09 04:31:51;;;;;;;18.48;9.52;;;4.40;99.90;;;;;;5061430;28;20486;-78
2023/01/09 04:34:17;;;;;;;18.98;10.07;;;4.40;99.90;;;;;;5050275;28;20051;-79
2023/01/09 04:36:43;;;;;;;18.98;10.30;;;4.40;99.90;;;;;;5053898;28;20089;-79
2023/01/09 04:39:09;;;;;;;18.83;9.77;;;4.40;99.90;;;;;;5067010;28;20036;-79
2023/01/09 04:41:47;;;;;;;20.85;10.30;;;4.50;99.90;;;;;;5073385;28;20237;-79
2023/01/09 04:44:14;;;;;;;18.23;9.35;;;4.40;99.90;;;;;;5071042;28;20431;-79
2023/01/09 04:46:40;;;;;;;18.40;9.73;;;4.40;99.90;;;;;;5073530;28;20078;-79
2023/01/09 04:49:06;;;;;;;20.58;10.43;;;4.50;99.90;;;;;;5074516;28;20079;-79
2023/01/09 04:51:32;;;;;;;15.85;9.30;;;4.40;99.90;;;;;;5055626;28;20413;-79
2023/01/09 04:53:58;;;;;;;17.35;9.50;;;4.50;99.90;;;;;;5069611;28;20028;-79
2023/01/09 04:56:23;;;;;;;20.65;9.05;;;4.60;99.90;;;;;;5073309;28;20029;-79
2023/01/09 04:58:50;;;;;;;18.92;9.30;;;4.60;99.90;;;;;;5072988;28;20044;-79
2023/01/09 05:01:16;;;;;;;17.42;9.52;;;4.60;99.90;;;;;;5038583;28;20057;-79
2023/01/09 05:03:41;;;;;;;18.52;10.32;;;4.60;99.90;;;;;;5052268;28;20044;-79
2023/01/09 05:06:07;;;;;;;17.42;10.20;;;4.70;99.90;;;;;;5063402;28;20044;-79
2023/01/09 05:08:33;;;;;;;17.08;9.35;;;4.60;99.90;;;;;;5072830;28;20040;-79
2023/01/09 05:10:59;;;;;;;15.65;8.80;;;4.60;99.90;;;;;;5060838;28;20127;-80
2023/01/09 05:13:25;;;;;;;17.75;9.32;;;4.70;99.90;;;;;;5049842;28;20447;-79
2023/01/09 05:15:51;;;;;;;17.27;8.75;;;4.70;99.90;;;;;;5061053;28;20409;-79
2023/01/09 05:18:17;;;;;;;14.13;8.38;;;4.70;99.90;;;;;;5047576;28;20041;-80
2023/01/09 05:20:43;;;;;;;16.73;9.13;;;4.70;99.90;;;;;;5074109;28;20029;-79
2023/01/09 05:23:09;;;;;;;14.80;8.43;;;4.70;99.90;;;;;;5054150;28;20091;-79
2023/01/09 05:25:34;;;;;;;12.07;7.60;;;4.80;99.90;;;;;;5055727;28;20503;-80
2023/01/09 05:28:00;;;;;;;16.85;9.50;;;4.80;99.90;;;;;;5054373;28;20028;-79
2023/01/09 05:30:27;;;;;;;14.43;8.10;;;4.80;99.90;;;;;;5054971;28;20055;-79
2023/01/09 05:32:53;;;;;;;14.13;7.88;;;4.70;99.90;;;;;;5070915;28;20029;-78
2023/01/09 05:35:19;;;;;;;12.23;7.50;;;4.80;99.90;;;;;;5067460;28;20039;-79
2023/01/09 05:37:45;;;;;;;12.65;7.63;;;4.70;99.90;;;;;;5052584;28;20086;-78
2023/01/09 05:40:12;;;;;;;12.63;8.25;;;4.70;99.90;;;;;;5074312;28;20265;-78
2023/01/09 05:42:38;;;;;;;12.68;7.97;;;4.80;99.90;;;;;;5070016;28;20012;-79
2023/01/09 05:45:05;;;;;;;10.95;7.00;;;4.80;99.90;;;;;;5021195;28;20032;-79
2023/01/09 05:47:31;;;;;;;11.27;6.57;;;4.70;99.90;;;;;;5074509;28;20052;-79
2023/01/09 05:49:57;;;;;;;14.20;7.00;;;4.70;99.90;;;;;;5075920;28;20039;-78
2023/01/09 05:52:24;;;;;;;11.40;7.25;;;4.80;99.90;;;;;;5055710;28;20040;-79
2023/01/09 05:54:50;;;;;;;10.90;6.53;;;4.80;99.90;;;;;;5054660;28;20115;-79
2023/01/09 05:57:16;;;;;;;12.57;6.40;;;4.90;99.90;;;;;;5075811;28;20107;-78
2023/01/09 05:59:42;;;;;;;8.75;6.00;;;4.90;99.90;;;;;;5055788;28;20156;-77
2023/01/09 06:02:08;;;;;;;10.23;6.38;;;4.90;99.90;;;;;;5070341;28;20139;-79
2023/01/09 06:04:34;;;;;;;13.02;7.18;;;5.00;99.90;;;;;;5054956;28;21285;-78
2023/01/09 06:07:00;;;;;;;11.38;6.63;;;5.10;99.90;;;;;;5065669;28;20059;-79
2023/01/09 06:09:25;;;;;;;12.13;6.38;;;5.10;99.90;;;;;;5054981;28;20463;-77
2023/01/09 06:11:53;;;;;;;11.02;7.00;;;5.10;99.90;;;;;;5050943;28;20514;-79
2023/01/09 06:14:20;;;;;;;9.18;5.90;;;5.10;99.90;;;;;;5062509;28;20072;-79
2023/01/09 06:16:46;;;;;;;9.80;6.35;;;5.20;99.90;;;;;;5051505;28;20555;-77
2023/01/09 06:19:12;;;;;;;9.27;5.95;;;5.30;99.90;;;;;;5058670;28;20056;-79
2023/01/09 06:21:37;;;;;;;8.93;5.18;;;5.30;99.90;;;;;;5073725;28;20115;-78
2023/01/09 06:24:03;;;;;;;12.20;5.95;;;5.30;99.90;;;;;;5027809;28;20089;-79
2023/01/09 06:26:29;;;;;;;7.93;5.32;;;5.40;99.90;;;;;;5056827;28;20037;-78
2023/01/09 06:28:55;;;;;;;10.93;5.65;;;5.50;99.90;;;;;;5057669;28;20051;-80
2023/01/09 06:31:23;;;;;;;8.73;5.32;;;5.60;99.90;;;;;;5074306;28;20048;-80
2023/01/09 06:33:49;;;;;;;8.38;5.35;;;5.60;99.90;;;;;;5053522;28;20025;-79
2023/01/09 06:36:15;;;;;;;8.10;5.35;;;5.60;99.90;;;;;;5066432;28;20036;-80
2023/01/09 06:38:41;;;;;;;6.30;4.55;;;5.60;99.90;;;;;;5072837;28;20111;-80
2023/01/09 06:41:07;;;;;;;32.03;5.50;;;5.70;99.90;;;;;;5072750;28;20052;-79
2023/01/09 06:43:33;;;;;;;8.07;4.85;;;5.70;99.90;;;;;;5051079;28;20054;-80
2023/01/09 06:45:59;;;;;;;6.88;4.72;;;5.70;99.90;;;;;;5076326;28;20047;-80
2023/01/09 06:48:25;;;;;;;7.53;4.85;;;5.80;99.90;;;;;;5075794;28;20047;-80
2023/01/09 06:50:52;;;;;;;7.90;4.90;;;5.80;99.90;;;;;;5074391;28;20086;-79
2023/01/09 06:53:19;;;;;;;7.10;4.72;;;5.80;99.90;;;;;;5072622;28;20032;-79
2023/01/09 06:55:45;;;;;;;7.85;4.95;;;5.80;99.90;;;;;;5073136;28;20031;-79
2023/01/09 06:58:12;;;;;;;58.20;6.15;;;5.80;99.90;;;;;;5076899;28;20059;-80
2023/01/09 07:00:37;;;;;;;7.90;4.13;;;5.80;99.90;;;;;;5073783;28;20492;-80
2023/01/09 07:03:04;;;;;;;7.30;4.13;;;5.80;99.90;;;;;;5043887;28;20029;-79
2023/01/09 07:05:32;;;;;;;4.72;2.88;;;5.80;99.90;;;;;;5053875;28;20679;-79
2023/01/09 07:07:57;;;;;;;3.25;1.98;;;5.80;99.90;;;;;;5080435;28;20037;-79
2023/01/09 07:10:23;;;;;;;1.88;1.48;;;5.80;99.90;;;;;;5073754;28;20052;-80
2023/01/09 07:12:49;;;;;;;1.80;1.15;;;5.80;99.90;;;;;;5074920;28;20066;-80
2023/01/09 07:15:16;;;;;;;0.93;0.80;;;5.70;99.90;;;;;;5079679;28;20032;-79
2023/01/09 07:17:41;;;;;;;0.50;0.47;;;5.70;99.90;;;;;;5078760;28;20032;-80
2023/01/09 07:20:08;;;;;;;0.77;0.65;;;5.60;99.90;;;;;;5055765;28;20537;-79
2023/01/09 07:22:34;;;;;;;0.68;0.50;;;5.60;99.90;;;;;;5060644;28;20029;-79
2023/01/09 07:25:00;;;;;;;0.65;0.47;;;5.50;99.90;;;;;;5050645;28;20041;-80
2023/01/09 07:27:26;;;;;;;0.60;0.43;;;5.50;99.90;;;;;;5039788;28;20037;-79
2023/01/09 07:29:52;;;;;;;0.60;0.50;;;5.50;99.90;;;;;;5073393;28;20040;-79
2023/01/09 07:32:18;;;;;;;1.05;0.40;;;5.50;99.90;;;;;;5070803;28;20074;-80
2023/01/09 07:34:44;;;;;;;2.35;0.30;;;5.40;99.90;;;;;;5038317;28;20389;-80
2023/01/09 07:37:10;;;;;;;1.02;0.50;;;5.50;99.90;;;;;;5045030;28;20032;-80
2023/01/09 07:39:36;;;;;;;0.80;0.40;;;5.40;99.90;;;;;;5024149;28;20040;-81
2023/01/09 07:42:02;;;;;;;0.60;0.40;;;5.40;99.90;;;;;;5034586;28;20029;-80
2023/01/09 07:44:29;;;;;;;0.55;0.43;;;5.40;99.90;;;;;;5049473;28;20040;-80
2023/01/09 07:46:55;;;;;;;0.88;0.60;;;5.40;99.90;;;;;;5052737;28;20078;-79
2023/01/09 07:49:20;;;;;;;1.85;0.90;;;5.40;99.90;;;;;;5036260;28;20041;-79
2023/01/09 07:51:47;;;;;;;0.70;0.57;;;5.40;99.90;;;;;;5052289;28;20032;-79
2023/01/09 07:54:13;;;;;;;1.33;0.60;;;5.40;99.90;;;;;;5036605;28;20032;-79
2023/01/09 07:56:39;;;;;;;0.43;0.38;;;5.40;99.90;;;;;;5017011;28;20124;-79
2023/01/09 07:59:06;;;;;;;0.63;0.63;;;5.40;99.90;;;;;;5052749;28;20512;-79
2023/01/09 08:01:32;;;;;;;0.55;0.40;;;5.40;99.90;;;;;;5059513;28;20119;-80
2023/01/09 08:03:58;;;;;;;0.82;0.40;;;5.40;99.90;;;;;;5050290;28;20496;-80
2023/01/09 08:06:24;;;;;;;0.40;0.30;;;5.30;99.90;;;;;;5035293;28;20398;-81
2023/01/09 08:08:50;;;;;;;1.42;0.50;;;5.40;99.90;;;;;;5042477;28;20032;-80
2023/01/09 08:11:16;;;;;;;0.30;0.30;;;5.30;99.90;;;;;;5070460;28;20036;-79
2023/01/09 08:13:42;;;;;;;0.30;0.30;;;5.30;99.90;;;;;;5056509;28;20041;-79
2023/01/09 08:16:08;;;;;;;0.20;0.20;;;5.30;99.90;;;;;;5058210;28;20399;-79
2023/01/09 08:18:34;;;;;;;2.42;0.20;;;5.30;99.90;;;;;;5062201;28;20043;-79
2023/01/09 08:21:00;;;;;;;1.85;0.50;;;5.30;99.90;;;;;;5042375;28;20032;-78
2023/01/09 08:23:26;;;;;;;0.40;0.40;;;5.30;99.90;;;;;;5054795;28;20036;-80
2023/01/09 08:25:52;;;;;;;1.13;0.43;;;5.20;99.90;;;;;;5056235;28;20033;-80
2023/01/09 08:28:19;;;;;;;0.40;0.40;;;5.30;99.90;;;;;;5069763;28;20056;-80
2023/01/09 08:30:46;;;;;;;1.05;0.70;;;5.30;99.90;;;;;;5058048;28;20077;-80
2023/01/09 08:33:12;;;;;;;0.30;0.30;;;5.30;99.90;;;;;;5071081;28;20131;-80
2023/01/09 08:35:38;;;;;;;1.00;0.40;;;5.40;99.90;;;;;;5049785;28;20048;-80
2023/01/09 08:38:04;;;;;;;1.10;0.40;;;5.40;99.90;;;;;;5055481;28;20048;-81
2023/01/09 08:40:30;;;;;;;0.82;0.50;;;5.50;99.90;;;;;;5056405;28;20025;-80
2023/01/09 08:48:25;;;;;;;0.63;0.60;;;5.60;99.90;;;;;;5029156;28;20044;-80
2023/01/09 08:50:53;;;;;;;1.30;0.60;;;5.60;99.90;;;;;;5057020;28;20549;-81
2023/01/09 08:53:19;;;;;;;1.98;0.70;;;5.70;99.90;;;;;;5035375;28;20025;-81
2023/01/09 08:55:45;;;;;;;0.70;0.60;;;5.70;99.90;;;;;;5054641;28;20031;-80
2023/01/09 08:58:11;;;;;;;1.00;0.82;;;5.60;99.90;;;;;;5044694;28;20028;-81
2023/01/09 09:00:37;;;;;;;0.80;0.80;;;5.60;99.90;;;;;;5056089;28;20380;-81
2023/01/09 09:03:03;;;;;;;0.60;0.60;;;5.60;99.90;;;;;;5054459;28;20025;-80
2023/01/09 09:05:31;;;;;;;0.77;0.77;;;5.50;99.90;;;;;;5050859;28;20032;-79
2023/01/09 09:07:57;;;;;;;0.65;0.65;;;5.50;99.90;;;;;;5073760;28;20043;-80
2023/01/09 09:10:26;;;;;;;2.30;0.65;;;5.60;99.90;;;;;;5056797;28;20038;-80
2023/01/09 09:12:54;;;;;;;1.63;0.80;;;5.60;99.90;;;;;;5071874;28;20033;-80
2023/01/09 09:15:24;;;;;;;0.60;0.60;;;5.60;99.90;;;;;;5055620;28;20032;-79
2023/01/09 09:17:59;;;;;;;0.63;0.63;;;5.60;99.90;;;;;;5053791;28;20033;-80
2023/01/09 09:20:28;;;;;;;0.98;0.70;;;5.60;99.90;;;;;;5067093;28;20032;-79
2023/01/09 09:22:54;;;;;;;1.00;0.80;;;5.70;99.90;;;;;;5071072;28;20037;-78
2023/01/09 09:25:20;;;;;;;0.80;0.70;;;5.60;99.90;;;;;;5073062;28;20020;-79
2023/01/09 09:27:47;;;;;;;0.82;0.70;;;5.70;99.90;;;;;;5065184;28;20036;-79
2023/01/09 09:30:16;;;;;;;0.60;0.60;;;5.60;99.90;;;;;;5053524;28;20099;-80
2023/01/09 09:32:42;;;;;;;1.88;0.70;;;5.60;99.90;;;;;;5063832;28;20064;-79
2023/01/09 09:35:09;;;;;;;0.98;0.68;;;5.60;99.90;;;;;;5054540;28;20038;-80
2023/01/09 09:37:35;;;;;;;1.02;0.68;;;5.60;99.90;;;;;;5055535;28;21216;-79
2023/01/09 09:40:02;;;;;;;1.30;0.68;;;5.60;99.90;;;;;;5054877;28;20032;-80
2023/01/09 09:45:37;;;;;;;1.37;0.70;;;5.50;99.90;;;;;;5066532;28;20365;-80
2023/01/09 09:48:23;;;;;;;0.70;0.70;;;5.40;99.90;;;;;;5069832;28;20032;-80
2023/01/09 09:50:55;;;;;;;3.90;0.63;;;5.40;99.90;;;;;;5071876;28;20044;-80
2023/01/09 09:53:38;;;;;;;1.52;0.68;;;5.40;99.90;;;;;;5051716;28;20097;-79
2023/01/09 09:56:06;;;;;;;1.10;0.77;;;5.40;99.90;;;;;;5049944;28;20416;-80
2023/01/09 09:58:37;;;;;;;4.10;0.90;;;5.40;99.90;;;;;;5053415;28;20051;-80
2023/01/09 10:01:04;;;;;;;0.50;0.50;;;5.40;99.90;;;;;;5058481;28;20029;-80
2023/01/09 10:03:52;;;;;;;2.97;0.70;;;5.30;99.90;;;;;;5064237;28;20025;-80
2023/01/09 10:06:23;;;;;;;2.38;0.50;;;5.40;99.90;;;;;;5031988;28;20558;-79
2023/01/09 10:09:32;;;;;;;4.28;0.57;;;5.30;99.90;;;;;;5055719;28;20507;-80
2023/01/09 10:12:26;;;;;;;2.33;0.75;;;5.30;99.90;;;;;;5039446;28;20496;-78
2023/01/09 10:14:55;;;;;;;2.88;0.70;;;5.30;99.90;;;;;;5068720;28;20523;-80
2023/01/09 10:17:33;;;;;;;0.55;0.55;;;5.30;99.90;;;;;;5052562;28;20033;-80
2023/01/09 10:19:59;;;;;;;4.63;0.63;;;5.30;99.90;;;;;;5072133;28;20052;-78
2023/01/09 10:22:38;;;;;;;2.65;0.65;;;5.30;99.90;;;;;;5051716;28;20452;-80
2023/01/09 10:25:41;;;;;;;0.77;0.55;;;5.30;99.90;;;;;;5053446;28;20054;-80
2023/01/09 10:28:07;;;;;;;2.22;0.77;;;5.30;99.90;;;;;;5053615;28;20082;-79
2023/01/09 10:30:37;;;;;;;2.55;1.10;;;5.40;99.90;;;;;;5071247;28;20031;-78
2023/01/09 10:33:08;;;;;;;1.20;0.70;;;5.40;99.90;;;;;;5070944;28;20028;-79
2023/01/09 10:35:37;;;;;;;1.13;0.80;;;5.40;99.90;;;;;;5072145;28;20050;-79
2023/01/09 10:38:07;;;;;;;2.22;0.68;;;5.30;99.90;;;;;;5040159;28;20039;-79
2023/01/09 10:40:45;;;;;;;0.77;0.70;;;5.40;99.90;;;;;;5059498;28;20032;-79
2023/01/09 10:43:22;;;;;;;5.38;0.80;;;5.40;99.90;;;;;;5076691;28;20561;-79
2023/01/09 10:45:54;;;;;;;2.25;0.80;;;5.30;99.90;;;;;;5070823;28;20028;-79
2023/01/09 10:48:34;;;;;;;3.70;1.10;;;5.30;99.90;;;;;;5075918;28;20040;-79
2023/01/09 10:51:02;;;;;;;1.30;0.70;;;5.30;99.90;;;;;;5073285;28;20108;-80
2023/01/09 10:53:37;;;;;;;2.10;0.68;;;5.40;99.90;;;;;;5051944;28;20016;-79
2023/01/09 10:56:17;;;;;;;2.40;0.70;;;5.40;99.90;;;;;;5069866;28;20035;-80
2023/01/09 10:58:43;;;;;;;0.93;0.80;;;5.50;99.90;;;;;;5071786;28;20028;-79
2023/01/09 11:01:10;;;;;;;1.40;0.80;;;5.50;99.90;;;;;;5053765;28;20405;-79
2023/01/09 11:03:37;;;;;;;4.07;0.82;;;5.60;99.90;;;;;;5046832;28;20542;-80
2023/01/09 11:06:19;;;;;;;1.45;0.73;;;5.60;99.90;;;;;;5054820;28;20797;-80
2023/01/09 11:08:49;;;;;;;2.28;0.90;;;5.70;99.90;;;;;;5071278;28;20493;-80
2023/01/09 11:11:34;;;;;;;2.38;0.57;;;5.70;99.90;;;;;;5072903;28;20188;-80
2023/01/09 11:14:17;;;;;;;2.67;0.80;;;5.70;99.90;;;;;;5067400;28;20382;-80
2023/01/09 11:16:53;;;;;;;1.25;0.50;;;5.80;99.90;;;;;;5061448;28;20024;-80
2023/01/09 11:19:20;;;;;;;1.95;0.70;;;5.80;99.90;;;;;;5063224;28;20491;-80
2023/01/09 11:21:46;;;;;;;1.70;0.88;;;5.80;99.90;;;;;;5072821;28;20024;-80
2023/01/09 11:24:20;;;;;;;5.05;0.60;;;5.80;99.90;;;;;;5052219;28;20032;-80
2023/01/09 11:26:47;;;;;;;3.20;0.50;;;5.80;99.90;;;;;;5053777;28;20485;-80
2023/01/09 11:29:15;;;;;;;0.40;0.40;;;5.70;99.90;;;;;;5050199;28;20541;-80
2023/01/09 11:31:49;;;;;;;1.02;0.50;;;5.70;99.90;;;;;;5036518;28;20036;-80
2023/01/09 11:34:32;;;;;;;2.30;0.90;;;5.70;99.90;;;;;;5048732;28;20086;-80
2023/01/09 11:37:07;;;;;;;1.75;0.57;;;5.70;99.90;;;;;;5053322;28;20478;-78
2023/01/09 11:39:36;;;;;;;2.30;1.02;;;5.70;99.90;;;;;;5068300;28;20093;-80
2023/01/09 11:42:05;;;;;;;2.08;0.73;;;5.70;99.90;;;;;;5068821;28;20060;-79
2023/01/09 11:44:32;;;;;;;1.85;0.77;;;5.70;99.90;;;;;;5060698;28;20032;-79
2023/01/09 11:46:58;;;;;;;9.52;1.02;;;5.70;99.90;;;;;;5060432;28;20039;-79
2023/01/09 11:49:27;;;;;;;1.75;0.60;;;5.60;99.90;;;;;;5063883;28;20028;-78
2023/01/09 11:52:15;;;;;;;3.63;0.73;;;5.60;99.90;;;;;;5057708;28;20032;-78
2023/01/09 11:54:51;;;;;;;4.05;0.65;;;5.50;99.90;;;;;;5070965;28;20028;-79
2023/01/09 11:57:17;;;;;;;2.35;0.70;;;5.50;99.90;;;;;;5062117;28;20025;-79
2023/01/09 11:59:43;;;;;;;1.77;0.70;;;5.50;99.90;;;;;;5045540;28;20094;-78
2023/01/09 12:02:29;;;;;;;1.75;0.57;;;5.50;99.90;;;;;;5056994;28;20094;-79
2023/01/09 12:05:19;;;;;;;3.13;0.50;;;5.50;99.90;;;;;;5070017;28;20068;-78
2023/01/09 12:08:07;;;;;;;2.42;0.52;;;5.40;99.90;;;;;;5048549;28;20079;-80
2023/01/09 12:10:42;;;;;;;2.88;1.65;;;5.40;99.90;;;;;;5045083;28;20086;-78
2023/01/09 12:13:45;;;;;;;0.85;0.50;;;5.40;99.90;;;;;;5054954;28;20029;-79
2023/01/09 12:16:54;;;;;;;5.03;0.40;;;5.40;99.90;;;;;;5069791;28;20409;-78
2023/01/09 12:19:39;;;;;;;1.38;0.50;;;5.40;99.90;;;;;;5073173;28;20028;-78
2023/01/09 12:22:24;;;;;;;3.22;0.70;;;5.30;99.90;;;;;;5061550;28;20068;-79
2023/01/09 12:24:53;;;;;;;;;;;5.40;99.90;;;;;;5070670;28;20028;-79
2023/01/09 12:27:50;;;;;;;2.08;0.50;;;5.40;99.90;;;;;;5054432;28;19909;-79
2023/01/09 12:30:38;;;;;;;4.75;0.77;;;5.30;99.90;;;;;;5050717;28;20055;-79
2023/01/09 12:33:39;;;;;;;3.50;0.60;;;5.30;99.90;;;;;;5071701;28;20111;-77
2023/01/09 12:36:11;;;;;;;3.17;0.68;;;5.30;99.90;;;;;;5024248;28;20098;-79
2023/01/09 12:38:37;;;;;;;1.73;0.40;;;5.30;99.90;;;;;;5046303;28;20029;-79
2023/01/09 12:41:16;;;;;;;1.25;0.50;;;5.40;99.90;;;;;;5048119;28;20090;-77
2023/01/09 12:44:07;;;;;;;2.10;0.50;;;5.40;99.90;;;;;;5066663;28;20036;-78
2023/01/09 12:46:56;;;;;;;0.68;0.30;;;5.40;99.90;;;;;;5056282;28;20038;-79
2023/01/09 12:49:33;;;;;;;1.40;0.50;;;5.40;99.90;;;;;;5073434;28;20055;-78
2023/01/09 12:52:13;;;;;;;4.45;0.63;;;5.40;99.90;;;;;;5060673;28;20885;-79
2023/01/09 12:54:47;;;;;;;1.85;0.50;;;5.40;99.90;;;;;;5072628;28;20028;-79
2023/01/09 12:57:25;;;;;;;3.58;0.77;;;5.40;99.90;;;;;;5073644;28;20439;-78
2023/01/09 12:59:57;;;;;;;5.18;0.95;;;5.50;99.90;;;;;;5070530;28;20040;-78
2023/01/09 13:02:40;;;;;;;2.78;0.40;;;5.50;99.90;;;;;;5034327;28;20404;-78
2023/01/09 13:05:20;;;;;;;3.25;0.45;;;5.40;99.90;;;;;;5071985;28;20047;-78
2023/01/09 13:07:59;;;;;;;3.20;0.70;;;5.50;99.90;;;;;;5071471;28;20028;-78
2023/01/09 13:10:29;;;;;;;5.90;0.95;;;5.50;99.90;;;;;;5057564;28;20504;-78
2023/01/09 13:12:57;;;;;;;1.73;0.60;;;5.50;99.90;;;;;;5069869;28;20032;-78
2023/01/09 13:15:41;;;;;;;2.42;0.63;;;5.50;99.90;;;;;;5073073;28;20036;-77
2023/01/09 13:18:42;;;;;;;3.10;0.70;;;5.40;99.90;;;;;;5068532;28;20470;-78